Time;durP1;ratioP1;P1;durP2;ratioP2;P2;SDS_P1;SDS_P2;PMS_P1;PMS_P2;Temp;Humidity;BMP_temperature;BMP_pressure;BME280_temperature;BME280_humidity;BME280_pressure;Samples;Min_cycle;Max_cycle;Signal;HPM_P1;HPM_P2
2021/03/02 00:00:34;;;;;;;7.13;5.43;;;4.20;1.00;;;;;;5093378;28;20746;-66
2021/03/02 00:03:01;;;;;;;9.83;6.67;;;4.30;1.00;;;;;;5093973;28;20512;-66
2021/03/02 00:05:27;;;;;;;9.17;6.37;;;4.40;99.90;;;;;;5092574;28;20448;-66
2021/03/02 00:07:54;;;;;;;7.13;5.40;;;4.40;91.90;;;;;;5093906;28;20538;-66
2021/03/02 00:10:20;;;;;;;7.00;5.00;;;4.20;99.90;;;;;;5093407;28;20495;-66
2021/03/02 00:12:47;;;;;;;8.63;5.47;;;4.00;1.00;;;;;;5093875;28;20867;-65
2021/03/02 00:15:14;;;;;;;7.40;5.10;;;3.90;99.90;;;;;;5093101;28;20456;-64
2021/03/02 00:17:48;;;;;;;7.50;4.53;;;4.00;99.90;;;;;;5093915;28;20476;-65
2021/03/02 00:20:16;;;;;;;10.87;5.80;;;4.20;99.90;;;;;;5093155;28;20509;-66
2021/03/02 00:22:56;;;;;;;8.37;5.33;;;4.30;99.90;;;;;;5093859;28;20449;-65
2021/03/02 00:25:25;;;;;;;9.30;4.83;;;4.10;1.00;;;;;;5092134;28;20548;-65
2021/03/02 00:27:53;;;;;;;6.90;4.73;;;3.90;1.00;;;;;;5093282;28;20449;-66
2021/03/02 00:30:21;;;;;;;9.93;5.60;;;4.00;1.00;;;;;;5092799;28;20484;-65
2021/03/02 00:32:48;;;;;;;13.17;5.10;;;4.00;1.00;;;;;;5093415;28;20444;-65
2021/03/02 00:35:15;;;;;;;9.40;5.43;;;4.00;99.90;;;;;;5092452;28;20508;-64
2021/03/02 00:37:44;;;;;;;9.03;4.77;;;4.00;1.00;;;;;;5094377;28;20451;-65
2021/03/02 00:40:11;;;;;;;6.70;4.53;;;3.90;99.90;;;;;;5093748;28;20936;-65
2021/03/02 00:42:37;;;;;;;10.27;7.33;;;3.60;99.90;;;;;;5092877;28;20845;-65
2021/03/02 00:45:05;;;;;;;9.73;5.00;;;3.50;1.00;;;;;;5092766;28;20457;-66
2021/03/02 00:47:31;;;;;;;7.03;5.13;;;3.60;1.00;;;;;;5092499;28;20527;-66
2021/03/02 00:49:59;;;;;;;11.37;5.73;;;3.50;99.90;;;;;;5092356;28;20520;-66
2021/03/02 00:52:25;;;;;;;8.10;5.30;;;3.30;1.00;;;;;;5092256;28;20446;-66
2021/03/02 00:54:51;;;;;;;9.97;6.57;;;3.20;99.90;;;;;;5089890;28;20510;-66
2021/03/02 00:57:18;;;;;;;9.60;5.97;;;3.20;99.90;;;;;;5081057;28;20450;-66
2021/03/02 00:59:44;;;;;;;8.13;5.63;;;3.30;99.90;;;;;;5092556;28;20536;-66
2021/03/02 01:02:10;;;;;;;18.57;5.93;;;3.30;99.90;;;;;;5092353;28;20455;-66
2021/03/02 01:04:37;;;;;;;8.70;5.03;;;3.10;99.90;;;;;;5091207;28;20460;-65
2021/03/02 01:07:04;;;;;;;9.50;6.00;;;3.10;99.90;;;;;;5091835;28;20454;-65
2021/03/02 01:09:30;;;;;;;10.43;6.73;;;3.10;1.00;;;;;;5091217;28;21116;-65
2021/03/02 01:11:57;;;;;;;15.27;6.10;;;3.10;1.00;;;;;;5091698;28;20950;-65
2021/03/02 01:14:24;;;;;;;8.23;5.33;;;3.10;99.90;;;;;;5090709;28;20459;-65
2021/03/02 01:16:50;;;;;;;8.30;5.50;;;3.20;1.00;;;;;;5091996;28;20461;-65
2021/03/02 01:19:17;;;;;;;7.43;5.20;;;3.10;1.00;;;;;;5090918;28;20844;-66
2021/03/02 01:21:43;;;;;;;7.97;5.43;;;3.00;1.00;;;;;;5091728;28;20449;-65
2021/03/02 01:24:11;;;;;;;5.07;4.40;;;3.00;1.00;;;;;;5091931;28;20449;-65
2021/03/02 01:26:37;;;;;;;6.63;4.53;;;3.30;99.90;;;;;;5091421;28;20444;-65
2021/03/02 01:29:04;;;;;;;11.63;6.17;;;3.20;99.90;;;;;;5092076;28;21042;-65
2021/03/02 01:31:30;;;;;;;7.77;5.23;;;3.00;1.00;;;;;;5091787;28;20449;-65
2021/03/02 01:33:56;;;;;;;8.57;4.93;;;2.90;1.00;;;;;;5091789;28;20447;-65
2021/03/02 01:36:23;;;;;;;9.33;5.90;;;2.80;1.00;;;;;;5091387;28;20494;-66
2021/03/02 01:38:49;;;;;;;8.93;5.50;;;2.90;1.00;;;;;;5091999;28;20456;-65
2021/03/02 01:41:17;;;;;;;10.97;5.43;;;2.90;1.00;;;;;;5091700;28;20784;-65
2021/03/02 01:43:44;;;;;;;8.63;5.70;;;3.10;1.00;;;;;;5091312;28;21007;-65
2021/03/02 01:46:10;;;;;;;9.13;6.20;;;2.90;1.00;;;;;;5092191;28;20481;-65
2021/03/02 01:48:40;;;;;;;7.63;5.27;;;2.70;1.00;;;;;;5091338;28;20452;-65
2021/03/02 01:51:09;;;;;;;9.60;5.10;;;2.60;1.00;;;;;;5091531;28;20960;-65
2021/03/02 01:53:35;;;;;;;6.97;4.20;;;2.60;1.00;;;;;;5090912;28;20459;-65
2021/03/02 01:56:02;;;;;;;6.80;4.57;;;2.90;1.00;;;;;;5091375;28;20854;-65
2021/03/02 01:58:30;;;;;;;8.90;4.63;;;2.90;1.00;;;;;;5091058;28;20514;-65
2021/03/02 02:00:59;;;;;;;6.63;5.50;;;2.80;1.00;;;;;;5090192;28;20457;-65
2021/03/02 02:03:33;;;;;;;9.07;5.30;;;3.00;1.00;;;;;;5091154;28;20462;-66
2021/03/02 02:06:04;;;;;;;9.87;5.40;;;3.20;1.00;;;;;;5091193;28;20473;-66
2021/03/02 02:08:39;;;;;;;8.83;5.93;;;3.20;1.00;;;;;;5091166;28;20476;-65
2021/03/02 02:11:13;;;;;;;11.20;6.17;;;2.90;1.00;;;;;;5090966;28;20494;-65
2021/03/02 02:13:46;;;;;;;8.83;5.40;;;3.00;1.00;;;;;;5091694;28;20497;-65
2021/03/02 02:16:15;;;;;;;10.63;5.60;;;2.70;1.00;;;;;;5091779;28;20665;-65
2021/03/02 02:18:45;;;;;;;11.10;6.10;;;2.80;1.00;;;;;;5093485;28;20968;-65
2021/03/02 02:21:19;;;;;;;8.80;5.70;;;3.10;1.00;;;;;;5092724;28;20459;-65
2021/03/02 02:24:01;;;;;;;8.40;5.50;;;3.10;1.00;;;;;;5091189;28;20445;-65
2021/03/02 02:26:42;;;;;;;7.80;5.60;;;3.10;1.00;;;;;;5090934;28;20448;-65
2021/03/02 02:29:11;;;;;;;8.03;5.10;;;3.00;1.00;;;;;;5091527;28;20898;-65
2021/03/02 02:31:38;;;;;;;12.83;7.30;;;3.20;1.00;;;;;;5091977;28;20551;-65
2021/03/02 02:34:06;;;;;;;8.10;5.30;;;3.20;99.90;;;;;;5093858;28;20550;-65
2021/03/02 02:36:33;;;;;;;9.53;5.30;;;3.10;1.00;;;;;;5093865;28;20459;-65
2021/03/02 02:39:00;;;;;;;7.40;5.87;;;2.90;1.00;;;;;;5093057;28;20445;-65
2021/03/02 02:41:29;;;;;;;12.40;6.67;;;2.90;1.00;;;;;;5091739;28;20527;-65
2021/03/02 02:43:57;;;;;;;9.30;5.87;;;3.00;1.00;;;;;;5091032;28;20458;-65
2021/03/02 02:46:25;;;;;;;13.23;5.67;;;3.10;1.00;;;;;;5091021;28;20455;-65
2021/03/02 02:48:52;;;;;;;7.90;5.50;;;3.00;1.00;;;;;;5090885;28;20447;-65
2021/03/02 02:51:19;;;;;;;10.30;5.90;;;3.00;1.00;;;;;;5090838;28;20440;-65
2021/03/02 02:53:46;;;;;;;9.60;5.50;;;3.00;1.00;;;;;;5090753;28;20449;-65
2021/03/02 02:56:16;;;;;;;12.23;5.83;;;2.90;1.00;;;;;;5090938;28;20448;-65
2021/03/02 02:58:50;;;;;;;13.87;5.50;;;2.60;1.00;;;;;;5091684;28;20444;-65
2021/03/02 03:01:19;;;;;;;7.97;5.20;;;2.70;1.00;;;;;;5090706;28;20444;-65
2021/03/02 03:03:48;;;;;;;11.00;5.30;;;2.70;1.00;;;;;;5090808;28;20500;-65
2021/03/02 03:06:19;;;;;;;10.27;5.37;;;2.80;1.00;;;;;;5091230;28;20454;-66
2021/03/02 03:08:50;;;;;;;10.53;5.70;;;2.90;1.00;;;;;;5091310;28;20524;-66
2021/03/02 03:11:19;;;;;;;7.50;4.90;;;2.70;1.00;;;;;;5090696;28;20472;-65
2021/03/02 03:13:47;;;;;;;10.27;6.30;;;2.50;1.00;;;;;;5093976;28;20451;-65
2021/03/02 03:16:14;;;;;;;9.33;5.03;;;2.50;1.00;;;;;;5095382;28;20448;-65
2021/03/02 03:18:47;;;;;;;8.03;5.77;;;2.70;50.90;;;;;;5094832;28;20548;-65
2021/03/02 03:21:14;;;;;;;8.17;4.90;;;2.80;1.00;;;;;;5095083;28;20451;-65
2021/03/02 03:23:41;;;;;;;10.27;5.70;;;2.80;1.00;;;;;;5094406;28;20939;-66
2021/03/02 03:26:09;;;;;;;11.30;5.70;;;2.90;1.00;;;;;;5094589;28;20451;-65
2021/03/02 03:28:36;;;;;;;7.77;5.70;;;2.60;1.00;;;;;;5094236;28;20454;-65
2021/03/02 03:31:04;;;;;;;7.57;5.17;;;2.40;1.00;;;;;;5094487;28;20480;-65
2021/03/02 03:33:31;;;;;;;8.30;5.47;;;2.20;94.50;;;;;;5093784;28;20453;-65
2021/03/02 03:35:59;;;;;;;8.00;5.63;;;2.30;99.90;;;;;;5094348;28;20461;-65
2021/03/02 03:38:25;;;;;;;7.20;5.00;;;2.40;99.90;;;;;;5094147;28;20470;-65
2021/03/02 03:40:51;;;;;;;8.87;5.47;;;2.40;43.30;;;;;;5094618;28;20962;-65
2021/03/02 03:43:18;;;;;;;8.13;4.40;;;2.20;99.90;;;;;;5093780;28;20940;-65
2021/03/02 03:45:44;;;;;;;10.47;6.07;;;2.20;99.90;;;;;;5093986;28;20538;-65
2021/03/02 03:48:11;;;;;;;7.50;5.17;;;2.20;99.90;;;;;;5094728;28;20468;-65
2021/03/02 03:50:38;;;;;;;8.57;5.30;;;2.20;99.90;;;;;;5093916;28;20487;-65
2021/03/02 03:53:07;;;;;;;8.93;5.07;;;2.10;99.90;;;;;;5094035;28;20455;-65
2021/03/02 03:55:38;;;;;;;8.63;4.40;;;2.00;99.90;;;;;;5080988;28;20447;-65
2021/03/02 03:58:05;;;;;;;9.13;6.10;;;2.10;99.90;;;;;;5094290;28;20781;-65
2021/03/02 04:00:31;;;;;;;6.67;4.57;;;2.30;99.90;;;;;;5093726;28;20470;-65
2021/03/02 04:02:58;;;;;;;7.00;4.70;;;2.40;45.90;;;;;;5093951;28;20963;-65
2021/03/02 04:05:25;;;;;;;7.43;5.37;;;2.30;99.90;;;;;;5093344;28;20449;-65
2021/03/02 04:07:53;;;;;;;9.97;6.20;;;2.20;99.90;;;;;;5093845;28;20458;-65
2021/03/02 04:10:21;;;;;;;8.73;5.87;;;2.40;99.90;;;;;;5093628;28;20512;-65
2021/03/02 04:12:48;;;;;;;6.73;5.50;;;2.40;99.90;;;;;;5094010;28;20447;-65
2021/03/02 04:15:16;;;;;;;13.33;5.67;;;2.20;99.90;;;;;;5093082;28;20446;-67
2021/03/02 04:17:49;;;;;;;11.50;6.60;;;2.00;99.90;;;;;;5093904;28;20479;-65
2021/03/02 04:20:16;;;;;;;10.40;5.77;;;2.10;99.90;;;;;;5093139;28;20445;-66
2021/03/02 04:22:42;;;;;;;9.67;6.30;;;1.90;99.90;;;;;;5093634;28;20542;-65
2021/03/02 04:25:11;;;;;;;11.60;6.60;;;2.10;99.90;;;;;;5092582;28;20448;-65
2021/03/02 04:27:39;;;;;;;10.70;6.10;;;2.30;99.90;;;;;;5092804;28;20939;-65
2021/03/02 04:30:06;;;;;;;9.87;5.57;;;2.10;99.90;;;;;;5093693;28;20487;-65
2021/03/02 04:32:33;;;;;;;10.40;6.10;;;2.40;99.90;;;;;;5093008;28;20452;-65
2021/03/02 04:34:59;;;;;;;8.73;5.90;;;2.50;92.80;;;;;;5092870;28;21040;-65
2021/03/02 04:37:25;;;;;;;10.43;5.43;;;2.30;99.90;;;;;;5093122;28;20604;-65
2021/03/02 04:39:52;;;;;;;10.80;5.50;;;2.30;99.90;;;;;;5093006;28;20458;-65
2021/03/02 04:42:18;;;;;;;11.10;6.03;;;2.10;99.90;;;;;;5092981;28;20453;-65
2021/03/02 04:44:45;;;;;;;12.03;6.40;;;2.00;99.90;;;;;;5093041;28;20455;-65
2021/03/02 04:47:12;;;;;;;10.13;5.50;;;2.40;99.90;;;;;;5093541;28;20538;-64
2021/03/02 04:49:38;;;;;;;13.87;6.67;;;2.10;99.90;;;;;;5092290;28;20567;-65
2021/03/02 04:52:05;;;;;;;8.80;6.03;;;1.80;99.90;;;;;;5092259;28;20450;-64
2021/03/02 04:54:31;;;;;;;12.43;5.40;;;2.10;99.90;;;;;;5091717;28;21015;-65
2021/03/02 04:56:57;;;;;;;9.83;6.20;;;2.20;99.90;;;;;;5092473;28;20447;-64
2021/03/02 04:59:24;;;;;;;11.80;6.50;;;2.30;99.90;;;;;;5092853;28;20455;-65
2021/03/02 05:01:51;;;;;;;13.27;6.47;;;2.10;99.90;;;;;;5092750;28;20530;-65
2021/03/02 05:04:17;;;;;;;9.27;6.23;;;2.40;99.90;;;;;;5092115;28;20806;-65
2021/03/02 05:06:44;;;;;;;10.90;6.70;;;2.20;99.90;;;;;;5091941;28;20542;-64
2021/03/02 05:09:11;;;;;;;13.97;6.63;;;2.20;99.90;;;;;;5092870;28;20549;-64
2021/03/02 05:11:37;;;;;;;14.70;7.40;;;2.10;99.90;;;;;;5092444;28;20563;-65
2021/03/02 05:14:03;;;;;;;8.73;5.50;;;2.10;99.90;;;;;;5092324;28;20474;-65
2021/03/02 05:16:30;;;;;;;13.30;6.40;;;2.10;99.90;;;;;;5092300;28;20479;-65
2021/03/02 05:18:57;;;;;;;7.33;6.53;;;2.10;99.90;;;;;;5092485;28;20471;-65
2021/03/02 05:21:23;;;;;;;9.57;6.77;;;2.00;99.90;;;;;;5092194;28;20515;-66
2021/03/02 05:23:50;;;;;;;11.13;6.00;;;2.00;99.90;;;;;;5091939;28;20991;-64
2021/03/02 05:26:16;;;;;;;11.03;7.53;;;2.00;99.90;;;;;;5092034;28;20516;-64
2021/03/02 05:28:42;;;;;;;11.50;8.10;;;1.90;99.90;;;;;;5092568;28;20457;-64
2021/03/02 05:31:09;;;;;;;9.57;5.87;;;1.90;99.90;;;;;;5092550;28;20553;-64
2021/03/02 05:33:35;;;;;;;11.83;7.23;;;1.80;99.90;;;;;;5091392;28;20457;-65
2021/03/02 05:36:02;;;;;;;11.83;7.53;;;1.90;99.90;;;;;;5092433;28;20453;-64
2021/03/02 05:38:29;;;;;;;14.50;7.77;;;1.70;99.90;;;;;;5091199;28;20438;-67
2021/03/02 05:40:55;;;;;;;13.60;7.23;;;2.00;99.90;;;;;;5092491;28;20459;-67
2021/03/02 05:43:22;;;;;;;10.00;7.00;;;2.00;99.90;;;;;;5091086;28;20969;-67
2021/03/02 05:45:48;;;;;;;10.53;7.00;;;1.80;99.90;;;;;;5092100;28;20541;-67
2021/03/02 05:48:16;;;;;;;11.40;7.47;;;1.90;99.90;;;;;;5091210;28;20483;-68
2021/03/02 05:50:42;;;;;;;10.30;7.20;;;1.90;99.90;;;;;;5091720;28;20570;-67
2021/03/02 05:53:09;;;;;;;9.60;6.10;;;2.00;99.90;;;;;;5091881;28;20485;-67
2021/03/02 05:55:36;;;;;;;12.37;7.50;;;1.90;99.90;;;;;;5091342;28;20434;-68
2021/03/02 05:58:04;;;;;;;10.60;5.83;;;1.90;99.90;;;;;;5091706;28;20499;-67
2021/03/02 06:00:31;;;;;;;10.27;7.23;;;1.90;99.90;;;;;;5091455;28;20466;-67
2021/03/02 06:02:58;;;;;;;10.90;7.10;;;2.00;99.90;;;;;;5091529;28;20537;-67
2021/03/02 06:05:24;;;;;;;10.33;6.17;;;2.00;99.90;;;;;;5091481;28;20455;-67
2021/03/02 06:07:51;;;;;;;10.07;6.80;;;2.00;99.90;;;;;;5091526;28;20447;-67
2021/03/02 06:10:19;;;;;;;10.73;7.33;;;1.90;99.90;;;;;;5091376;28;20481;-68
2021/03/02 06:12:52;;;;;;;11.50;7.07;;;2.00;99.90;;;;;;5091730;28;20447;-68
2021/03/02 06:15:20;;;;;;;12.80;7.67;;;2.00;99.90;;;;;;5091370;28;20535;-67
2021/03/02 06:17:46;;;;;;;9.57;6.60;;;2.00;99.90;;;;;;5091029;28;20487;-67
2021/03/02 06:20:20;;;;;;;10.90;6.97;;;2.00;99.90;;;;;;5091715;28;20445;-67
2021/03/02 06:22:46;;;;;;;12.83;7.60;;;2.10;99.90;;;;;;5091730;28;20455;-67
2021/03/02 06:25:37;;;;;;;11.20;6.30;;;2.30;99.90;;;;;;5091958;28;20452;-68
2021/03/02 06:28:03;;;;;;;11.03;7.07;;;2.50;99.90;;;;;;5088393;28;20444;-68
2021/03/02 06:30:30;;;;;;;14.80;7.90;;;2.90;99.90;;;;;;5090944;28;20494;-67
2021/03/02 06:32:56;;;;;;;15.50;8.30;;;2.90;99.90;;;;;;5091222;28;20449;-68
2021/03/02 06:35:33;;;;;;;12.87;8.10;;;3.20;99.90;;;;;;5090425;28;20475;-67
2021/03/02 06:38:01;;;;;;;9.67;8.00;;;3.50;99.90;;;;;;5091402;28;20507;-68
2021/03/02 06:40:39;;;;;;;12.63;8.60;;;4.00;1.00;;;;;;5090980;28;20907;-67
2021/03/02 06:43:06;;;;;;;12.10;6.83;;;3.40;99.90;;;;;;5091902;28;20503;-68
2021/03/02 06:45:33;;;;;;;16.50;8.57;;;3.00;1.00;;;;;;5090570;28;20461;-67
2021/03/02 06:48:04;;;;;;;12.63;7.57;;;2.90;1.00;;;;;;5093199;28;20540;-68
2021/03/02 06:50:37;;;;;;;17.60;8.57;;;2.90;1.00;;;;;;5094669;28;20486;-68
2021/03/02 06:53:09;;;;;;;12.43;7.23;;;3.10;51.60;;;;;;5095604;28;20794;-68
2021/03/02 06:55:38;;;;;;;11.77;7.10;;;3.10;1.00;;;;;;5095082;28;20457;-67
2021/03/02 06:58:16;;;;;;;18.50;9.40;;;3.10;1.00;;;;;;5094958;28;20529;-68
2021/03/02 07:00:50;;;;;;;15.07;9.53;;;3.20;1.00;;;;;;5095355;28;20962;-67
2021/03/02 07:03:22;;;;;;;17.60;7.80;;;3.30;1.00;;;;;;5094754;28;20454;-67
2021/03/02 07:05:49;;;;;;;13.10;9.10;;;3.50;1.00;;;;;;5095530;28;20458;-67
2021/03/02 07:08:15;;;;;;;13.43;8.47;;;3.70;1.00;;;;;;5094339;28;20508;-67
2021/03/02 07:10:42;;;;;;;14.93;8.40;;;3.70;1.00;;;;;;5095163;28;20621;-67
2021/03/02 07:13:11;;;;;;;15.87;8.70;;;3.90;1.00;;;;;;5095549;28;20448;-67
2021/03/02 07:15:41;;;;;;;13.70;8.37;;;3.80;99.90;;;;;;5094712;28;20476;-68
2021/03/02 07:18:10;;;;;;;13.33;9.07;;;3.80;99.90;;;;;;5094392;28;20491;-67
2021/03/02 07:20:38;;;;;;;10.73;8.47;;;3.90;1.00;;;;;;5094241;28;20453;-68
2021/03/02 07:23:05;;;;;;;12.13;8.83;;;3.80;99.90;;;;;;5094861;28;20455;-68
2021/03/02 07:25:36;;;;;;;11.77;8.47;;;3.80;99.90;;;;;;5094410;28;20445;-67
2021/03/02 07:28:06;;;;;;;11.00;7.80;;;3.90;1.00;;;;;;5094826;28;20439;-67
2021/03/02 07:30:33;;;;;;;11.17;7.87;;;4.00;99.90;;;;;;5093981;28;20484;-68
2021/03/02 07:33:02;;;;;;;11.87;8.70;;;4.20;99.90;;;;;;5094897;28;20810;-68
2021/03/02 07:35:29;;;;;;;16.93;8.20;;;4.40;99.90;;;;;;5094252;28;20876;-68
2021/03/02 07:38:12;;;;;;;13.10;8.10;;;4.50;99.90;;;;;;5094288;28;20455;-68
2021/03/02 07:40:44;;;;;;;16.93;8.83;;;4.50;1.00;;;;;;5094788;28;20452;-68
2021/03/02 07:43:31;;;;;;;14.30;8.53;;;4.60;1.00;;;;;;5095127;28;20472;-68
2021/03/02 07:45:58;;;;;;;16.23;9.40;;;4.60;1.00;;;;;;5094706;28;20471;-68
2021/03/02 07:48:29;;;;;;;12.90;8.57;;;4.70;1.00;;;;;;5093201;28;20521;-69
2021/03/02 07:51:16;;;;;;;11.20;8.43;;;4.70;99.90;;;;;;5094813;28;20991;-69
2021/03/02 07:53:43;;;;;;;14.57;8.87;;;4.90;11.70;;;;;;5095412;28;20451;-68
2021/03/02 07:56:31;;;;;;;19.80;8.50;;;5.00;99.90;;;;;;5095109;28;20440;-68
2021/03/02 07:59:20;;;;;;;17.93;8.90;;;5.10;1.00;;;;;;5093138;28;20806;-68
2021/03/02 08:02:15;;;;;;;18.50;10.40;;;5.20;1.00;;;;;;5098714;28;20444;-68
2021/03/02 08:04:42;;;;;;;15.80;9.50;;;5.30;26.40;;;;;;5085427;28;20537;-68
2021/03/02 08:07:22;;;;;;;16.87;8.87;;;5.40;99.90;;;;;;5094357;28;20451;-68
2021/03/02 08:09:50;;;;;;;14.93;9.20;;;5.50;1.00;;;;;;5094689;28;20493;-68
2021/03/02 08:12:40;;;;;;;15.23;9.33;;;5.60;99.90;;;;;;5094564;28;20447;-69
2021/03/02 08:15:45;;;;;;;15.33;10.10;;;5.70;23.50;;;;;;5074534;28;20455;-70
2021/03/02 08:18:29;;;;;;;13.37;9.50;;;5.70;1.00;;;;;;5078485;28;20498;-68
2021/03/02 08:21:13;;;;;;;14.30;8.60;;;5.80;1.00;;;;;;5093980;28;20791;-68
2021/03/02 08:23:54;;;;;;;17.10;11.07;;;5.90;99.90;;;;;;5094367;28;20464;-69
2021/03/02 08:26:28;;;;;;;13.33;9.70;;;6.00;99.90;;;;;;5093166;28;20444;-69
2021/03/02 08:29:12;;;;;;;18.03;9.50;;;6.10;1.00;;;;;;5093474;28;20439;-69
2021/03/02 08:31:41;;;;;;;14.00;9.50;;;6.10;1.00;;;;;;5093014;28;20487;-69
2021/03/02 08:34:10;;;;;;;16.20;10.70;;;6.20;1.00;;;;;;5093878;28;20789;-69
2021/03/02 08:36:38;;;;;;;18.60;10.23;;;6.30;99.90;;;;;;5093149;28;20535;-69
2021/03/02 08:39:08;;;;;;;14.43;9.80;;;6.40;99.90;;;;;;5092920;28;20978;-68
2021/03/02 08:41:37;;;;;;;16.10;9.70;;;6.40;99.90;;;;;;5093077;28;20454;-69
2021/03/02 08:44:05;;;;;;;14.80;10.63;;;6.40;99.90;;;;;;5093377;28;20459;-69
2021/03/02 08:46:33;;;;;;;15.50;9.63;;;6.60;64.50;;;;;;5092719;28;21012;-69
2021/03/02 08:49:07;;;;;;;17.73;10.53;;;6.70;1.00;;;;;;5092834;28;20994;-69
2021/03/02 08:51:34;;;;;;;15.20;8.97;;;6.90;1.00;;;;;;5092790;28;20872;-69
2021/03/02 08:54:01;;;;;;;14.50;8.73;;;6.90;99.90;;;;;;5092986;28;20527;-68
2021/03/02 08:56:27;;;;;;;17.73;10.43;;;7.10;99.90;;;;;;5092726;28;20447;-69
2021/03/02 08:58:55;;;;;;;17.87;11.33;;;7.20;99.90;;;;;;5092490;28;20440;-69
2021/03/02 09:01:27;;;;;;;15.97;10.63;;;7.30;99.90;;;;;;5092658;28;20451;-69
2021/03/02 09:04:06;;;;;;;16.17;9.67;;;7.20;99.90;;;;;;5093407;28;20558;-69
2021/03/02 09:06:32;;;;;;;22.30;10.67;;;7.40;99.90;;;;;;5092299;28;20449;-69
2021/03/02 09:09:01;;;;;;;14.00;9.40;;;7.60;1.00;;;;;;5092358;28;20497;-69
2021/03/02 09:11:30;;;;;;;14.17;8.60;;;7.60;1.00;;;;;;5091963;28;20537;-69
2021/03/02 09:13:58;;;;;;;14.60;8.87;;;7.80;1.00;;;;;;5092988;28;20445;-69
2021/03/02 09:16:27;;;;;;;13.63;8.93;;;7.80;1.00;;;;;;5092306;28;20453;-69
2021/03/02 09:19:10;;;;;;;14.07;9.63;;;7.90;1.00;;;;;;5092234;28;21052;-70
2021/03/02 09:21:39;;;;;;;19.93;9.57;;;8.10;1.00;;;;;;5092007;28;20440;-69
2021/03/02 09:24:07;;;;;;;12.93;9.07;;;8.10;99.90;;;;;;5092399;28;20449;-69
2021/03/02 09:26:34;;;;;;;14.10;9.70;;;8.20;99.90;;;;;;5092031;28;20771;-68
2021/03/02 09:29:03;;;;;;;13.60;9.30;;;8.30;99.90;;;;;;5092128;28;20444;-69
2021/03/02 09:31:31;;;;;;;17.37;10.13;;;8.40;99.90;;;;;;5091755;28;20571;-69
2021/03/02 09:33:58;;;;;;;18.57;11.03;;;8.50;99.90;;;;;;5092656;28;20483;-69
2021/03/02 09:36:26;;;;;;;12.57;9.93;;;8.60;99.90;;;;;;5091677;28;20532;-68
2021/03/02 09:38:54;;;;;;;12.63;9.03;;;8.80;99.90;;;;;;5091934;28;20459;-68
2021/03/02 09:41:35;;;;;;;15.67;10.63;;;8.80;99.90;;;;;;5091923;28;20452;-68
2021/03/02 09:44:18;;;;;;;12.93;9.73;;;8.90;91.10;;;;;;5092443;28;20505;-68
2021/03/02 09:46:45;;;;;;;14.20;8.67;;;9.10;37.80;;;;;;5091841;28;20789;-68
2021/03/02 09:49:12;;;;;;;15.23;9.13;;;9.30;1.00;;;;;;5092299;28;20535;-69
2021/03/02 09:51:44;;;;;;;11.87;8.57;;;9.30;1.00;;;;;;5091355;28;20476;-70
2021/03/02 09:54:16;;;;;;;13.33;9.40;;;9.30;1.00;;;;;;5092527;28;20437;-69
2021/03/02 09:56:47;;;;;;;13.90;8.90;;;9.40;1.00;;;;;;5091705;28;20998;-68
2021/03/02 09:59:20;;;;;;;14.93;9.53;;;9.40;1.00;;;;;;5092091;28;20452;-68
2021/03/02 10:01:47;;;;;;;16.17;10.20;;;9.60;1.00;;;;;;5092211;28;20487;-69
2021/03/02 10:04:15;;;;;;;14.13;9.57;;;9.70;1.00;;;;;;5091765;28;20539;-69
2021/03/02 10:06:41;;;;;;;13.43;10.10;;;9.80;1.00;;;;;;5091753;28;20453;-69
2021/03/02 10:09:19;;;;;;;16.03;10.57;;;9.80;1.00;;;;;;5092067;28;20456;-68
2021/03/02 10:11:47;;;;;;;14.63;10.40;;;9.90;1.00;;;;;;5091989;28;20564;-69
2021/03/02 10:14:14;;;;;;;13.13;10.20;;;9.90;1.00;;;;;;5092108;28;20452;-69
2021/03/02 10:16:42;;;;;;;21.63;9.23;;;10.10;1.00;;;;;;5091388;28;20449;-69
2021/03/02 10:19:17;;;;;;;12.87;8.70;;;10.10;1.00;;;;;;5091807;28;20479;-68
2021/03/02 10:21:45;;;;;;;12.87;8.83;;;10.40;1.00;;;;;;5091069;28;20988;-68
2021/03/02 10:24:17;;;;;;;17.40;9.47;;;10.70;1.00;;;;;;5092051;28;20444;-68
2021/03/02 10:26:44;;;;;;;15.80;8.93;;;10.60;1.00;;;;;;5091308;28;21022;-68
2021/03/02 10:29:12;;;;;;;15.50;9.93;;;10.70;1.00;;;;;;5093855;28;20472;-68
2021/03/02 10:31:39;;;;;;;12.73;9.83;;;10.80;1.00;;;;;;5097543;28;20567;-68
2021/03/02 10:34:06;;;;;;;11.23;9.60;;;11.00;99.90;;;;;;5095208;28;21027;-69
2021/03/02 10:36:34;;;;;;;14.50;9.37;;;11.00;99.90;;;;;;5091683;28;20455;-69
2021/03/02 10:39:03;;;;;;;11.20;8.53;;;10.90;99.90;;;;;;5091403;28;20568;-69
2021/03/02 10:41:29;;;;;;;11.43;9.27;;;11.00;99.90;;;;;;5091054;28;20535;-69
2021/03/02 10:43:56;;;;;;;13.50;9.43;;;11.10;99.90;;;;;;5091251;28;20441;-69
2021/03/02 10:46:25;;;;;;;18.47;9.80;;;11.20;99.90;;;;;;5090367;28;20535;-69
2021/03/02 10:48:52;;;;;;;11.83;8.80;;;11.30;99.90;;;;;;5090920;28;20459;-69
2021/03/02 10:51:20;;;;;;;22.47;15.27;;;11.50;99.90;;;;;;5090377;28;20507;-69
2021/03/02 10:53:47;;;;;;;27.60;17.50;;;11.50;99.90;;;;;;5090931;28;20444;-69
2021/03/02 10:56:14;;;;;;;17.00;13.63;;;11.60;99.90;;;;;;5090970;28;20911;-69
2021/03/02 10:58:41;;;;;;;13.43;10.53;;;11.70;99.90;;;;;;5090683;28;20440;-69
2021/03/02 11:01:07;;;;;;;11.17;9.63;;;11.80;99.90;;;;;;5091171;28;20522;-69
2021/03/02 11:03:35;;;;;;;12.40;9.47;;;12.00;99.90;;;;;;5090663;28;20829;-69
2021/03/02 11:06:01;;;;;;;13.47;9.50;;;12.20;99.90;;;;;;5091292;28;20580;-69
2021/03/02 11:08:28;;;;;;;14.57;10.27;;;12.30;99.90;;;;;;5090232;28;20444;-69
2021/03/02 11:10:54;;;;;;;12.40;8.90;;;12.40;99.90;;;;;;5091128;28;20483;-69
2021/03/02 11:13:21;;;;;;;16.00;9.00;;;12.50;99.90;;;;;;5090806;28;20444;-69
2021/03/02 11:15:47;;;;;;;14.33;9.90;;;12.60;99.90;;;;;;5091153;28;20880;-69
2021/03/02 11:18:14;;;;;;;13.07;10.70;;;12.60;99.90;;;;;;5090386;28;20480;-69
2021/03/02 11:20:43;;;;;;;15.70;10.07;;;12.70;99.90;;;;;;5091185;28;20519;-69
2021/03/02 11:23:11;;;;;;;14.33;8.13;;;12.90;99.90;;;;;;5091040;28;20444;-69
2021/03/02 11:25:37;;;;;;;13.40;8.60;;;12.90;99.90;;;;;;5090347;28;20494;-69
2021/03/02 11:28:04;;;;;;;17.70;10.20;;;13.10;99.90;;;;;;5090393;28;21008;-69
2021/03/02 11:30:31;;;;;;;19.93;10.67;;;13.20;99.90;;;;;;5090328;28;20567;-69
2021/03/02 11:32:57;;;;;;;13.77;8.70;;;13.20;99.90;;;;;;5091034;28;20588;-69
2021/03/02 11:35:24;;;;;;;12.47;11.17;;;13.40;99.90;;;;;;5093868;28;20928;-69
2021/03/02 11:37:51;;;;;;;11.27;8.37;;;13.60;99.90;;;;;;5094527;28;20497;-69
2021/03/02 11:40:19;;;;;;;17.07;10.60;;;13.60;99.90;;;;;;5093941;28;20456;-69
2021/03/02 11:42:46;;;;;;;14.33;10.60;;;13.80;99.90;;;;;;5094850;28;20444;-69
2021/03/02 11:45:14;;;;;;;14.90;9.80;;;13.70;99.90;;;;;;5094720;28;20544;-69
2021/03/02 11:47:40;;;;;;;18.00;9.43;;;13.70;99.90;;;;;;5094389;28;20532;-69
2021/03/02 11:50:08;;;;;;;18.33;10.70;;;13.90;99.90;;;;;;5094477;28;20444;-69
2021/03/02 11:52:34;;;;;;;13.50;8.90;;;13.90;99.90;;;;;;5093955;28;20760;-69
2021/03/02 11:55:02;;;;;;;12.53;9.77;;;13.90;99.90;;;;;;5094422;28;20875;-69
2021/03/02 11:57:28;;;;;;;16.33;10.90;;;14.00;99.90;;;;;;5093413;28;20444;-69
2021/03/02 11:59:55;;;;;;;22.40;10.90;;;14.00;99.90;;;;;;5094145;28;20445;-69
2021/03/02 12:02:21;;;;;;;18.90;10.03;;;14.40;99.90;;;;;;5093817;28;20553;-69
2021/03/02 12:04:47;;;;;;;12.47;10.00;;;14.50;99.90;;;;;;5094046;28;20928;-69
2021/03/02 12:07:14;;;;;;;18.13;10.00;;;14.50;99.90;;;;;;5093753;28;20528;-69
2021/03/02 12:09:41;;;;;;;14.27;9.70;;;14.60;99.90;;;;;;5094105;28;20482;-68
2021/03/02 12:12:09;;;;;;;15.67;10.57;;;14.60;99.90;;;;;;5094123;28;20508;-68
2021/03/02 12:14:36;;;;;;;15.53;9.33;;;14.60;99.90;;;;;;5093346;28;20505;-69
2021/03/02 12:17:02;;;;;;;16.10;10.37;;;14.60;99.90;;;;;;5093223;28;20920;-69
2021/03/02 12:19:29;;;;;;;15.70;9.30;;;14.70;96.70;;;;;;5093324;28;20465;-69
2021/03/02 12:21:56;;;;;;;16.90;11.03;;;14.90;93.10;;;;;;5093664;28;20456;-69
2021/03/02 12:24:23;;;;;;;17.83;10.60;;;15.00;91.10;;;;;;5092728;28;20595;-70
2021/03/02 12:26:50;;;;;;;14.43;9.10;;;14.90;92.60;;;;;;5093125;28;20448;-69
2021/03/02 12:29:17;;;;;;;16.67;9.77;;;14.90;90.40;;;;;;5093601;28;20943;-69
2021/03/02 12:31:44;;;;;;;17.77;10.40;;;14.90;82.00;;;;;;5093552;28;20484;-69
2021/03/02 12:34:11;;;;;;;16.43;10.13;;;15.00;80.60;;;;;;5093406;28;20577;-70
2021/03/02 12:36:38;;;;;;;18.00;10.03;;;15.10;77.60;;;;;;5092441;28;21008;-70
2021/03/02 12:39:05;;;;;;;16.43;9.93;;;15.10;71.70;;;;;;5093511;28;20448;-69
2021/03/02 12:41:32;;;;;;;17.50;11.87;;;15.10;82.00;;;;;;5092781;28;20452;-69
2021/03/02 12:43:58;;;;;;;14.90;9.60;;;15.10;63.40;;;;;;5092699;28;20451;-68
2021/03/02 12:46:25;;;;;;;15.83;10.30;;;15.20;62.50;;;;;;5091229;28;20448;-70
2021/03/02 12:48:52;;;;;;;18.57;11.20;;;15.40;58.90;;;;;;5093386;28;20889;-69
2021/03/02 12:51:19;;;;;;;12.60;9.40;;;15.40;53.70;;;;;;5092710;28;20918;-70
2021/03/02 12:53:45;;;;;;;16.57;10.40;;;15.50;50.30;;;;;;5092906;28;20449;-68
2021/03/02 12:56:12;;;;;;;14.80;9.40;;;15.60;48.50;;;;;;5093406;28;20802;-69
2021/03/02 12:58:38;;;;;;;16.10;10.10;;;15.60;45.10;;;;;;5092277;28;20592;-69